Airfield :
LOGIN :

Register | Disclaimer

   EN    FR    IT 

 










Legend :    VFR   Marginal VFR   IFR   Intensive IFR   Very Intensive IFR
Visi :
Ceiling :
>= 8 km
>= 3000ft
5 to 8 km
1000 to 3000 ft
1500m to 5 km
500 to 1000 ft
800 to 1500m
200 to 500 ft
< 800m
< 200 ft
Symbols :   Thunderstorms  Fog  Heavy snow  Heavy precipitations  Wind > 20 kt
SIGMETs :     Misc.  Thunderstorms  Icing  Turbulence  Mountain Waves  Volcanic Ashes







- Airport Elevation : 1682 ft
- IATA code : VIT


LEVT - Vitoria Gasteiz

CURRENT METAR :
  • 192000Z VRB02KT CAVOK 09/08 Q1014

EXPIRED METARs :
  • 191930Z VRB01KT CAVOK 10/08 Q1014
  • 191900Z 00000KT CAVOK 11/08 Q1014
  • 191830Z 00000KT 9999 FEW070 11/08 Q1013
  • 191800Z VRB01KT 9999 FEW070 12/08 Q1013
  • 191730Z 21004KT 9999 FEW070 13/08 Q1013

TAF TAF LEVT
Valid from the 19 at 18:00 until the 20 at 18:00 UTC


191700Z 1918/2018 22009KT 9999 FEW050 TX22/2014Z TN10/2006Z
TEMPO 2009/2014 23015G25KT
No reported NOTAMs for that airfield.
1 SIGMET reported for the Madrid FIR (LECM) :
 
Severe turbulence
LECM SIGMET 7 VALID 192000/192400 LEVA
LECM MADRID FIR/UIR SEV TURB FCST E OF LINE N4340 W002 - N3810 W002 FL200/340 MOV E 20KT WKN=



MET'MAP, your aeronautical weather chart ! - Copyright ORBIFLY December 2007 - Disclaimer

ORBIFLY MET'MAP TEAM :

Programming & Development : Alexandra Zaïnal
Concept & Development : Baudouin d'Aumeries
Co-Development & Prog : Marc-Olivier Méhu
Technical & hardware support : Manuel Goepfert

Contact : metmap@orbifly.com




SOURCES & CREDITS :

   NOAA